Airfield :
LOGIN :

Register | Disclaimer

   EN    FR    IT 

 










Legend :    VFR   Marginal VFR   IFR   Intensive IFR   Very Intensive IFR
Visi :
Ceiling :
>= 8 km
>= 3000ft
5 to 8 km
1000 to 3000 ft
1500m to 5 km
500 to 1000 ft
800 to 1500m
200 to 500 ft
< 800m
< 200 ft
Symbols :   Thunderstorms  Fog  Heavy snow  Heavy precipitations  Wind > 20 kt
SIGMETs :     Misc.  Thunderstorms  Icing  Turbulence  Mountain Waves  Volcanic Ashes






- Airport Elevation : 124 ft
- IATA code : RNS


LFRN - Rennes

CURRENT METAR :
  • 281000Z AUTO 16011KT 140V210 9999 OVC005 08/07 Q1013 TEMPO 3000 RADZ

EXPIRED METARs :
  • 280930Z AUTO 16012KT 4600 -RA BR OVC007 08/07 Q1013 TEMPO RADZ BKN004
  • 280900Z AUTO 18014KT 9999 OVC007 08/06 Q1013 TEMPO 3000 RADZ BKN004
  • 280830Z AUTO 16013KT 9999 OVC007 07/06 Q1013 TEMPO 3000 RADZ BKN004
  • 280800Z AUTO 16014KT 9999 BKN011 BKN018 BKN026 07/05 Q1014 TEMPO 3000 RADZ BKN004
  • 280730Z AUTO 16012KT 9999 FEW014 BKN024 BKN029 07/04 Q1014 TEMPO 3000 RADZ BKN004

TAF TAF LFRN
Valid from the 28 at 06:00 until the 29 at 06:00 UTC


280500Z 2806/2906 18012KT 9999 BKN030
BECMG 2806/2808 OVC008
TEMPO 2808/2815 3000 RADZ BKN004
BECMG 2813/2815 22015G25KT
PROB40
TEMPO 2815/2818 4000 DZ
BECMG 2816/2818 BKN015
BECMG 2820/2823 BKN020
BECMG 2904/2906 4000 RA
TEMPO 2905/2906 21025G40KT
ATIS : +33 2 99 67 72 50



MET'MAP, your aeronautical weather chart ! - Copyright ORBIFLY December 2007 - Disclaimer

ORBIFLY MET'MAP TEAM :

Programming & Development : Alexandra Zaïnal
Concept & original design : Baudouin d'Aumeries
Assistance for programming : Marc-Olivier Méhu
Technical & hardware support : Manuel Goepfert

Contact : metmap@orbifly.com




SOURCES & CREDITS :

   NOAA